^^
Station Historical Data
Daily Summary for January 3, 2018 Units:  English    Metric   Both
« Previous Day
Next Day »
Daily Weekly Monthly Yearly Custom
  High: Low: Average:
Temperature: TemperatureF °F 72.1 °F 80.7 °F
Dew Point: DewpointF °F 23.7 °F 29 °F
Humidity: Humidity% 12% 15%
Wind Speed: WindSpeedMPHmph -999.9mph -14.8mph
Wind Gust: WindSpeedGustMPHmph - -
Wind- -
Pressure: PressureIn in 30.14 in -
Precipitation: 0.00 in    
Historical Graphs
 
 
Tabular Data for January 3, 2018
Time Temperature Dew Point Pressure Wind Wind Speed Wind Gust Humidity Rainfall Rate (Hourly) solar Conditions
TemperatureF °F DewpointF °F PressureIn in Calm     Humidity% HourlyPrecipIn in SoftwareType W/m2 Conditions
09:01 72.1 °F 27.7 °F 30.25 in North -999.9 mph -999.0 mph 19% 0.00 in meteobridge W/m2
09:07 72.7 °F 28.0 °F 30.25 in NNE 6.9 mph 18.0 mph 19% 0.00 in meteobridge W/m2
09:13 72.9 °F 28.2 °F 30.26 in North 14.1 mph 17.0 mph 19% 0.00 in meteobridge W/m2
09:20 73.2 °F 28.4 °F 30.26 in North 11.0 mph 16.0 mph 19% 0.00 in meteobridge W/m2
09:26 73.6 °F 28.8 °F 30.26 in NNE 11.0 mph 18.0 mph 19% 0.00 in meteobridge W/m2
09:32 73.6 °F 28.8 °F 30.26 in North 11.0 mph 18.0 mph 19% 0.00 in meteobridge W/m2
09:38 74.1 °F 27.9 °F 30.26 in North 15.0 mph 15.0 mph 18% 0.00 in meteobridge W/m2
09:44 74.1 °F 29.3 °F 30.27 in NNE 10.1 mph 17.0 mph 19% 0.00 in meteobridge W/m2
09:58 75.4 °F 28.9 °F 30.27 in NNE 17.9 mph 18.0 mph 18% 0.00 in meteobridge W/m2
10:04 75.6 °F 29.1 °F 30.27 in North 12.1 mph 18.0 mph 18% 0.00 in meteobridge W/m2
10:10 75.7 °F 27.9 °F 30.27 in NE 12.1 mph 16.0 mph 17% 0.00 in meteobridge W/m2
10:16 76.1 °F 28.0 °F 30.28 in NNE 14.1 mph 18.0 mph 17% 0.00 in meteobridge W/m2
10:22 75.7 °F 29.3 °F 30.27 in North 11.0 mph 13.0 mph 18% 0.00 in meteobridge W/m2
10:29 76.3 °F 28.2 °F 30.27 in North 12.1 mph 17.0 mph 17% 0.00 in meteobridge W/m2
10:35 76.5 °F 29.8 °F 30.27 in North 19.0 mph 20.0 mph 18% 0.00 in meteobridge W/m2
10:41 76.6 °F 28.6 °F 30.27 in NE 2.9 mph 17.0 mph 17% 0.00 in meteobridge W/m2
10:47 77.2 °F 28.9 °F 30.27 in NE 11.0 mph 16.0 mph 17% 0.00 in meteobridge W/m2
10:53 77.4 °F 29.1 °F 30.27 in NNE 11.0 mph 20.0 mph 17% 0.00 in meteobridge W/m2
10:59 77.0 °F 28.8 °F 30.27 in NE 16.1 mph 21.0 mph 17% 0.00 in meteobridge W/m2
11:05 77.7 °F 29.5 °F 30.27 in NNW 8.1 mph 16.0 mph 17% 0.00 in meteobridge W/m2
11:11 77.9 °F 29.7 °F 30.27 in North 13.0 mph 21.0 mph 17% 0.00 in meteobridge W/m2
11:17 77.5 °F 29.3 °F 30.27 in North 6.0 mph 16.0 mph 17% 0.00 in meteobridge W/m2
11:23 77.7 °F 29.5 °F 30.27 in North 2.9 mph 14.0 mph 17% 0.00 in meteobridge W/m2
11:29 78.1 °F 29.7 °F 30.27 in NNE 8.1 mph 15.0 mph 17% 0.00 in meteobridge W/m2
11:35 78.6 °F 30.2 °F 30.27 in NNE 4.9 mph 9.0 mph 17% 0.00 in meteobridge W/m2
11:42 78.6 °F 30.2 °F 30.26 in NE 8.9 mph 15.0 mph 17% 0.00 in meteobridge W/m2
11:48 78.6 °F 28.8 °F 30.26 in NNW 4.9 mph 17.0 mph 16% 0.00 in meteobridge W/m2
11:54 78.8 °F 28.8 °F 30.26 in NE 4.9 mph 9.0 mph 16% 0.00 in meteobridge W/m2
12:00 79.2 °F 30.6 °F 30.26 in NNW 4.9 mph 19.0 mph 17% 0.00 in meteobridge W/m2
12:08 80.2 °F 30.0 °F 30.25 in ENE 0.9 mph 7.0 mph 16% 0.00 in meteobridge W/m2
12:31 80.1 °F 29.8 °F 30.24 in North 16.1 mph 19.0 mph 16% 0.00 in meteobridge W/m2
12:37 80.4 °F 30.2 °F 30.24 in NNE 4.9 mph 11.0 mph 16% 0.00 in meteobridge W/m2
12:43 81.3 °F 30.9 °F 30.24 in NNW 15.0 mph 19.0 mph 16% 0.00 in meteobridge W/m2
12:49 80.8 °F 30.4 °F 30.24 in East 4.0 mph 9.0 mph 16% 0.00 in meteobridge W/m2
12:55 80.4 °F 30.2 °F 30.24 in North 10.1 mph 13.0 mph 16% 0.00 in meteobridge W/m2
13:01 81.7 °F 31.1 °F 30.24 in NW 4.9 mph 15.0 mph 16% 0.00 in meteobridge W/m2
13:07 82.2 °F 31.6 °F 30.24 in NNW 2.9 mph 11.0 mph 16% 0.00 in meteobridge W/m2
13:13 81.9 °F 31.3 °F 30.24 in North 2.9 mph 10.0 mph 16% 0.00 in meteobridge W/m2
13:26 83.1 °F 32.4 °F 30.23 in NNE 10.1 mph 17.0 mph 16% 0.00 in meteobridge W/m2
13:38 83.1 °F 32.4 °F 30.22 in NNE 2.0 mph 6.0 mph 16% 0.00 in meteobridge W/m2
13:40 83.5 °F 32.5 °F 30.22 in NNE 6.9 mph 12.0 mph 16% 0.00 in meteobridge W/m2
13:46 83.3 °F 32.4 °F 30.22 in North 13.0 mph 17.0 mph 16% 0.00 in meteobridge W/m2
13:50 83.7 °F 32.7 °F 30.21 in SE 2.9 mph 4.0 mph 16% 0.00 in meteobridge W/m2
13:56 83.8 °F 32.9 °F 30.22 in NW 11.0 mph 21.0 mph 16% 0.00 in meteobridge W/m2
14:03 83.1 °F 32.4 °F 30.21 in WNW 6.0 mph 23.0 mph 16% 0.00 in meteobridge W/m2
14:09 82.8 °F 32.0 °F 30.21 in NNW 6.0 mph 14.0 mph 16% 0.00 in meteobridge W/m2
14:15 83.5 °F 32.5 °F 30.21 in SE 2.9 mph 6.0 mph 16% 0.00 in meteobridge W/m2
14:21 85.3 °F 32.4 °F 30.20 in West 6.0 mph 6.0 mph 15% 0.00 in meteobridge W/m2
14:27 85.6 °F 30.9 °F 30.20 in North 6.0 mph 14.0 mph 14% 0.00 in meteobridge W/m2
14:33 84.4 °F 31.6 °F 30.20 in NW 4.9 mph 13.0 mph 15% 0.00 in meteobridge W/m2
14:39 84.0 °F 29.7 °F 30.20 in NW 2.0 mph 10.0 mph 14% 0.00 in meteobridge W/m2
14:46 83.7 °F 29.5 °F 30.20 in North 4.9 mph 8.0 mph 14% 0.00 in meteobridge W/m2
14:52 83.8 °F 31.3 °F 30.19 in NE 4.9 mph 13.0 mph 15% 0.00 in meteobridge W/m2
14:58 84.6 °F 30.2 °F 30.19 in NNE 2.0 mph 9.0 mph 14% 0.00 in meteobridge W/m2
15:04 84.9 °F 30.4 °F 30.18 in WSW 2.9 mph 3.0 mph 14% 0.00 in meteobridge W/m2
15:10 85.8 °F 31.1 °F 30.18 in NNE 6.0 mph 6.0 mph 14% 0.00 in meteobridge W/m2
15:17 86.4 °F 31.5 °F 30.17 in West 0.9 mph 9.0 mph 14% 0.00 in meteobridge W/m2
15:25 85.8 °F 31.1 °F 30.17 in NNW 8.9 mph 10.0 mph 14% 0.00 in meteobridge W/m2
15:31 85.5 °F 30.9 °F 30.17 in NNE 6.0 mph 11.0 mph 14% 0.00 in meteobridge W/m2
15:37 84.6 °F 30.2 °F 30.17 in West 4.0 mph 16.0 mph 14% 0.00 in meteobridge W/m2
15:43 84.7 °F 30.2 °F 30.17 in North 10.1 mph 13.0 mph 14% 0.00 in meteobridge W/m2
15:49 84.7 °F 30.2 °F 30.17 in NNW 2.0 mph 5.0 mph 14% 0.00 in meteobridge W/m2
15:55 85.3 °F 30.7 °F 30.16 in SSW 4.9 mph 5.0 mph 14% 0.00 in meteobridge W/m2
16:01 85.6 °F 29.1 °F 30.16 in Calm   6.0 mph 13% 0.00 in meteobridge W/m2
16:07 86.4 °F 29.7 °F 30.16 in NNE 4.9 mph 7.0 mph 13% 0.00 in meteobridge W/m2
16:13 85.8 °F 29.3 °F 30.16 in South 4.9 mph 6.0 mph 13% 0.00 in meteobridge W/m2
16:26 85.6 °F 29.1 °F 30.16 in North 8.1 mph 8.1 mph 13% 0.00 in meteobridge W/m2
16:32 86.4 °F 29.7 °F 30.16 in Calm   6.0 mph 13% 0.00 in meteobridge W/m2
16:38 85.6 °F 29.1 °F 30.15 in North 10.1 mph 16.0 mph 13% 0.00 in meteobridge W/m2
16:40 85.3 °F 28.9 °F 30.15 in NNW 4.0 mph 17.0 mph 13% 0.00 in meteobridge W/m2
16:52 84.6 °F 28.4 °F 30.15 in North 2.9 mph 11.0 mph 13% 0.00 in meteobridge W/m2
16:58 84.9 °F 28.6 °F 30.15 in SSW 4.0 mph 13.0 mph 13% 0.00 in meteobridge W/m2
17:04 86.0 °F 29.5 °F 30.15 in South 4.9 mph 11.0 mph 13% 0.00 in meteobridge W/m2
17:10 85.5 °F 28.9 °F 30.15 in NNE 2.9 mph 10.0 mph 13% 0.00 in meteobridge W/m2
17:17 85.1 °F 28.8 °F 30.14 in North 2.0 mph 3.0 mph 13% 0.00 in meteobridge W/m2
17:23 84.9 °F 28.6 °F 30.14 in ENE 2.9 mph 11.0 mph 13% 0.00 in meteobridge W/m2
17:29 86.0 °F 29.5 °F 30.15 in WNW 0.9 mph 2.0 mph 13% 0.00 in meteobridge W/m2
17:35 87.1 °F 28.4 °F 30.15 in NNE 6.0 mph 11.0 mph 12% 0.00 in meteobridge W/m2
17:41 85.8 °F 27.3 °F 30.15 in ESE 0.9 mph 7.0 mph 12% 0.00 in meteobridge W/m2
17:45 85.6 °F 27.1 °F 30.15 in West 2.9 mph 7.0 mph 12% 0.00 in meteobridge W/m2
17:51 85.5 °F 27.1 °F 30.15 in SW 2.9 mph 12.0 mph 12% 0.00 in meteobridge W/m2
17:57 85.3 °F 28.9 °F 30.15 in ENE 4.9 mph 12.0 mph 13% 0.00 in meteobridge W/m2
18:03 84.4 °F 28.2 °F 30.15 in North 4.0 mph 6.0 mph 13% 0.00 in meteobridge W/m2
18:09 84.4 °F 28.2 °F 30.15 in SSE 2.9 mph 4.0 mph 13% 0.00 in meteobridge W/m2
18:22 85.3 °F 28.9 °F 30.15 in WSW 2.0 mph 3.0 mph 13% 0.00 in meteobridge W/m2
18:28 84.6 °F 26.4 °F 30.15 in North 4.9 mph 12.0 mph 12% 0.00 in meteobridge W/m2
18:34 84.6 °F 26.4 °F 30.15 in WNW 4.9 mph 6.0 mph 12% 0.00 in meteobridge W/m2
18:40 83.8 °F 25.9 °F 30.15 in NNW 11.0 mph 17.0 mph 12% 0.00 in meteobridge W/m2
18:58 83.1 °F 25.3 °F 30.16 in WSW 2.0 mph 5.0 mph 12% 0.00 in meteobridge W/m2
19:26 81.7 °F 24.1 °F 30.17 in SSE 6.0 mph 6.0 mph 12% 0.00 in meteobridge W/m2
19:33 81.1 °F 23.7 °F 30.18 in NNW 2.0 mph 2.0 mph 12% 0.00 in meteobridge W/m2
19:39 81.1 °F 23.7 °F 30.18 in NNW 2.0 mph -999.0 mph 12% 0.00 in meteobridge W/m2
19:45 81.1 °F 23.7 °F 30.18 in NNW 2.0 mph -999.0 mph 12% 0.00 in meteobridge W/m2
19:54 81.1 °F 23.7 °F 30.19 in North -999.9 mph -999.0 mph 12% 0.00 in meteobridge W/m2
Regenstein, Windhoek, Namibia
Compliments of Weather Underground - 2.5 mb